sensor_id;sensor_type;location;lat;lon;timestamp;temperature;humidity
56234;DHT22;42141;53.240;6.580;2022-09-25T00:01:37;8.00;99.90
56234;DHT22;42141;53.240;6.580;2022-09-25T00:04:03;8.20;99.90
56234;DHT22;42141;53.240;6.580;2022-09-25T00:06:30;8.00;99.90
56234;DHT22;42141;53.240;6.580;2022-09-25T00:08:58;9.00;99.90
56234;DHT22;42141;53.240;6.580;2022-09-25T00:11:28;7.90;99.90
56234;DHT22;42141;53.240;6.580;2022-09-25T00:13:56;7.90;99.90
56234;DHT22;42141;53.240;6.580;2022-09-25T00:16:26;9.10;99.90
56234;DHT22;42141;53.240;6.580;2022-09-25T00:18:54;7.10;99.90
56234;DHT22;42141;53.240;6.580;2022-09-25T00:21:39;8.80;99.90
56234;DHT22;42141;53.240;6.580;2022-09-25T00:24:07;8.90;99.90
56234;DHT22;42141;53.240;6.580;2022-09-25T00:26:36;8.10;99.90
56234;DHT22;42141;53.240;6.580;2022-09-25T00:29:04;7.80;99.90
56234;DHT22;42141;53.240;6.580;2022-09-25T00:31:30;7.80;99.90
56234;DHT22;42141;53.240;6.580;2022-09-25T00:34:01;8.80;99.90
56234;DHT22;42141;53.240;6.580;2022-09-25T00:36:29;8.80;99.90
56234;DHT22;42141;53.240;6.580;2022-09-25T00:38:56;8.60;99.90
56234;DHT22;42141;53.240;6.580;2022-09-25T00:41:24;8.90;99.90
56234;DHT22;42141;53.240;6.580;2022-09-25T00:43:53;7.80;99.90
56234;DHT22;42141;53.240;6.580;2022-09-25T00:51:49;7.70;99.90
56234;DHT22;42141;53.240;6.580;2022-09-25T00:54:21;7.70;99.90
56234;DHT22;42141;53.240;6.580;2022-09-25T00:56:51;7.70;99.90
56234;DHT22;42141;53.240;6.580;2022-09-25T00:59:27;7.60;99.90
56234;DHT22;42141;53.240;6.580;2022-09-25T01:01:54;8.90;99.90
56234;DHT22;42141;53.240;6.580;2022-09-25T01:04:20;8.50;99.90
56234;DHT22;42141;53.240;6.580;2022-09-25T01:06:48;8.60;99.90
56234;DHT22;42141;53.240;6.580;2022-09-25T01:09:15;7.70;99.90
56234;DHT22;42141;53.240;6.580;2022-09-25T01:11:41;8.30;99.90
56234;DHT22;42141;53.240;6.580;2022-09-25T01:14:08;8.70;99.90
56234;DHT22;42141;53.240;6.580;2022-09-25T01:22:08;7.60;99.90
56234;DHT22;42141;53.240;6.580;2022-09-25T01:25:22;7.60;99.90
56234;DHT22;42141;53.240;6.580;2022-09-25T01:28:08;7.60;99.90
56234;DHT22;42141;53.240;6.580;2022-09-25T01:30:41;8.70;99.90
56234;DHT22;42141;53.240;6.580;2022-09-25T01:35:48;7.90;99.90
56234;DHT22;42141;53.240;6.580;2022-09-25T01:41:11;7.50;99.90
56234;DHT22;42141;53.240;6.580;2022-09-25T01:46:36;7.80;99.90
56234;DHT22;42141;53.240;6.580;2022-09-25T01:49:13;7.50;99.90
56234;DHT22;42141;53.240;6.580;2022-09-25T01:51:45;7.40;99.90
56234;DHT22;42141;53.240;6.580;2022-09-25T01:54:19;7.40;99.90
56234;DHT22;42141;53.240;6.580;2022-09-25T01:59:55;8.40;99.90
56234;DHT22;42141;53.240;6.580;2022-09-25T02:02:27;8.40;99.90
56234;DHT22;42141;53.240;6.580;2022-09-25T02:05:13;7.90;99.90
56234;DHT22;42141;53.240;6.580;2022-09-25T02:07:47;7.40;99.90
56234;DHT22;42141;53.240;6.580;2022-09-25T02:10:28;8.20;99.90
56234;DHT22;42141;53.240;6.580;2022-09-25T02:13:12;7.30;99.90
56234;DHT22;42141;53.240;6.580;2022-09-25T02:15:47;7.20;99.90
56234;DHT22;42141;53.240;6.580;2022-09-25T02:18:15;7.20;99.90
56234;DHT22;42141;53.240;6.580;2022-09-25T02:23:55;7.80;99.90
56234;DHT22;42141;53.240;6.580;2022-09-25T02:26:29;7.20;99.90
56234;DHT22;42141;53.240;6.580;2022-09-25T02:28:57;8.10;99.90
56234;DHT22;42141;53.240;6.580;2022-09-25T02:31:34;7.20;99.90
56234;DHT22;42141;53.240;6.580;2022-09-25T02:34:01;7.10;99.90
56234;DHT22;42141;53.240;6.580;2022-09-25T02:36:28;7.10;99.90
56234;DHT22;42141;53.240;6.580;2022-09-25T02:38:54;7.40;99.90
56234;DHT22;42141;53.240;6.580;2022-09-25T02:47:17;7.10;99.90
56234;DHT22;42141;53.240;6.580;2022-09-25T02:52:28;7.10;99.90
56234;DHT22;42141;53.240;6.580;2022-09-25T02:55:05;7.00;99.90
56234;DHT22;42141;53.240;6.580;2022-09-25T02:57:43;7.10;99.90
56234;DHT22;42141;53.240;6.580;2022-09-25T03:00:10;7.10;99.90
56234;DHT22;42141;53.240;6.580;2022-09-25T03:02:38;7.10;99.90
56234;DHT22;42141;53.240;6.580;2022-09-25T03:05:06;7.90;99.90
56234;DHT22;42141;53.240;6.580;2022-09-25T03:07:34;7.10;99.90
56234;DHT22;42141;53.240;6.580;2022-09-25T03:10:21;7.60;99.90
56234;DHT22;42141;53.240;6.580;2022-09-25T03:12:47;7.10;99.90
56234;DHT22;42141;53.240;6.580;2022-09-25T03:15:13;7.10;99.90
56234;DHT22;42141;53.240;6.580;2022-09-25T03:17:39;7.10;99.90
56234;DHT22;42141;53.240;6.580;2022-09-25T03:20:06;7.10;99.90
56234;DHT22;42141;53.240;6.580;2022-09-25T03:22:35;7.10;99.90
56234;DHT22;42141;53.240;6.580;2022-09-25T03:25:03;7.10;99.90
56234;DHT22;42141;53.240;6.580;2022-09-25T03:27:28;7.10;99.90
56234;DHT22;42141;53.240;6.580;2022-09-25T03:29:54;8.30;99.90
56234;DHT22;42141;53.240;6.580;2022-09-25T03:32:21;8.20;99.90
56234;DHT22;42141;53.240;6.580;2022-09-25T03:34:46;6.30;99.90
56234;DHT22;42141;53.240;6.580;2022-09-25T03:37:12;7.30;99.90
56234;DHT22;42141;53.240;6.580;2022-09-25T03:39:38;8.10;99.90
56234;DHT22;42141;53.240;6.580;2022-09-25T03:42:04;8.50;99.90
56234;DHT22;42141;53.240;6.580;2022-09-25T03:44:30;7.60;99.90
56234;DHT22;42141;53.240;6.580;2022-09-25T03:46:56;8.60;99.90
56234;DHT22;42141;53.240;6.580;2022-09-25T03:49:22;7.70;99.90
56234;DHT22;42141;53.240;6.580;2022-09-25T03:51:47;8.90;99.90
56234;DHT22;42141;53.240;6.580;2022-09-25T03:54:13;7.70;99.90
56234;DHT22;42141;53.240;6.580;2022-09-25T03:56:39;7.70;99.90
56234;DHT22;42141;53.240;6.580;2022-09-25T03:59:05;7.70;99.90
56234;DHT22;42141;53.240;6.580;2022-09-25T04:01:31;7.60;99.90
56234;DHT22;42141;53.240;6.580;2022-09-25T04:03:56;7.70;99.90
56234;DHT22;42141;53.240;6.580;2022-09-25T04:06:24;7.90;99.90
56234;DHT22;42141;53.240;6.580;2022-09-25T04:08:51;7.50;99.90
56234;DHT22;42141;53.240;6.580;2022-09-25T04:11:18;8.30;99.90
56234;DHT22;42141;53.240;6.580;2022-09-25T04:13:44;6.90;99.90
56234;DHT22;42141;53.240;6.580;2022-09-25T04:16:12;7.40;99.90
56234;DHT22;42141;53.240;6.580;2022-09-25T04:18:38;8.50;99.90
56234;DHT22;42141;53.240;6.580;2022-09-25T04:21:08;8.40;99.90
56234;DHT22;42141;53.240;6.580;2022-09-25T04:23:35;7.70;99.90
56234;DHT22;42141;53.240;6.580;2022-09-25T04:26:01;8.20;99.90
56234;DHT22;42141;53.240;6.580;2022-09-25T04:28:28;7.20;99.90
56234;DHT22;42141;53.240;6.580;2022-09-25T04:30:56;7.60;99.90
56234;DHT22;42141;53.240;6.580;2022-09-25T04:33:21;7.20;99.90
56234;DHT22;42141;53.240;6.580;2022-09-25T04:36:06;7.30;99.90
56234;DHT22;42141;53.240;6.580;2022-09-25T04:38:32;7.20;99.90
56234;DHT22;42141;53.240;6.580;2022-09-25T04:41:01;7.10;99.90
56234;DHT22;42141;53.240;6.580;2022-09-25T04:43:28;7.10;99.90
56234;DHT22;42141;53.240;6.580;2022-09-25T04:45:54;7.90;99.90
56234;DHT22;42141;53.240;6.580;2022-09-25T04:48:19;7.40;99.90
56234;DHT22;42141;53.240;6.580;2022-09-25T04:50:48;7.00;99.90
56234;DHT22;42141;53.240;6.580;2022-09-25T04:53:15;6.90;99.90
56234;DHT22;42141;53.240;6.580;2022-09-25T04:55:41;7.90;99.90
56234;DHT22;42141;53.240;6.580;2022-09-25T04:58:08;6.80;99.90
56234;DHT22;42141;53.240;6.580;2022-09-25T05:00:36;7.90;99.90
56234;DHT22;42141;53.240;6.580;2022-09-25T05:03:08;6.80;99.90
56234;DHT22;42141;53.240;6.580;2022-09-25T05:05:34;7.60;99.90
56234;DHT22;42141;53.240;6.580;2022-09-25T05:08:01;6.80;99.90
56234;DHT22;42141;53.240;6.580;2022-09-25T05:10:29;6.70;99.90
56234;DHT22;42141;53.240;6.580;2022-09-25T05:12:57;7.90;99.90
56234;DHT22;42141;53.240;6.580;2022-09-25T05:15:24;6.60;99.90
56234;DHT22;42141;53.240;6.580;2022-09-25T05:17:50;7.50;99.90
56234;DHT22;42141;53.240;6.580;2022-09-25T05:20:23;6.70;99.90
56234;DHT22;42141;53.240;6.580;2022-09-25T05:22:53;7.80;99.90
56234;DHT22;42141;53.240;6.580;2022-09-25T05:25:19;7.50;99.90
56234;DHT22;42141;53.240;6.580;2022-09-25T05:27:47;6.60;99.90
56234;DHT22;42141;53.240;6.580;2022-09-25T05:30:15;7.70;99.90
56234;DHT22;42141;53.240;6.580;2022-09-25T05:32:51;6.60;99.90
56234;DHT22;42141;53.240;6.580;2022-09-25T05:35:21;7.40;99.90
56234;DHT22;42141;53.240;6.580;2022-09-25T05:37:48;7.60;99.90
56234;DHT22;42141;53.240;6.580;2022-09-25T05:40:14;7.50;99.90
56234;DHT22;42141;53.240;6.580;2022-09-25T05:42:41;6.60;99.90
56234;DHT22;42141;53.240;6.580;2022-09-25T05:45:14;6.60;99.90
56234;DHT22;42141;53.240;6.580;2022-09-25T05:47:40;6.60;99.90
56234;DHT22;42141;53.240;6.580;2022-09-25T05:50:07;6.60;99.90
56234;DHT22;42141;53.240;6.580;2022-09-25T05:52:34;6.60;99.90
56234;DHT22;42141;53.240;6.580;2022-09-25T05:55:00;7.20;99.90
56234;DHT22;42141;53.240;6.580;2022-09-25T05:57:30;7.20;99.90
56234;DHT22;42141;53.240;6.580;2022-09-25T05:59:55;6.60;99.90
56234;DHT22;42141;53.240;6.580;2022-09-25T06:02:21;6.70;99.90
56234;DHT22;42141;53.240;6.580;2022-09-25T06:04:47;6.70;99.90
56234;DHT22;42141;53.240;6.580;2022-09-25T06:07:12;7.30;99.90
56234;DHT22;42141;53.240;6.580;2022-09-25T06:09:38;6.80;99.90
56234;DHT22;42141;53.240;6.580;2022-09-25T06:12:04;7.40;99.90
56234;DHT22;42141;53.240;6.580;2022-09-25T06:14:31;6.80;99.90
56234;DHT22;42141;53.240;6.580;2022-09-25T06:16:57;8.00;99.90
56234;DHT22;42141;53.240;6.580;2022-09-25T06:19:23;7.80;99.90
56234;DHT22;42141;53.240;6.580;2022-09-25T06:21:49;6.90;99.90
56234;DHT22;42141;53.240;6.580;2022-09-25T06:24:15;6.90;99.90
56234;DHT22;42141;53.240;6.580;2022-09-25T06:26:40;7.00;99.90
56234;DHT22;42141;53.240;6.580;2022-09-25T06:29:06;7.30;99.90
56234;DHT22;42141;53.240;6.580;2022-09-25T06:31:33;7.10;99.90
56234;DHT22;42141;53.240;6.580;2022-09-25T06:33:59;7.50;99.90
56234;DHT22;42141;53.240;6.580;2022-09-25T06:36:25;7.30;99.90
56234;DHT22;42141;53.240;6.580;2022-09-25T06:38:54;7.40;99.90
56234;DHT22;42141;53.240;6.580;2022-09-25T06:41:20;7.50;99.90
56234;DHT22;42141;53.240;6.580;2022-09-25T06:43:50;8.20;99.90
56234;DHT22;42141;53.240;6.580;2022-09-25T06:46:17;8.20;99.90
56234;DHT22;42141;53.240;6.580;2022-09-25T06:48:52;7.70;99.90
56234;DHT22;42141;53.240;6.580;2022-09-25T06:51:22;7.90;99.90
56234;DHT22;42141;53.240;6.580;2022-09-25T06:53:51;8.10;99.90
56234;DHT22;42141;53.240;6.580;2022-09-25T06:56:17;8.60;99.90
56234;DHT22;42141;53.240;6.580;2022-09-25T06:58:43;8.50;99.90
56234;DHT22;42141;53.240;6.580;2022-09-25T07:01:09;8.60;99.90
56234;DHT22;42141;53.240;6.580;2022-09-25T07:03:36;9.60;99.90
56234;DHT22;42141;53.240;6.580;2022-09-25T07:06:23;8.90;99.90
56234;DHT22;42141;53.240;6.580;2022-09-25T07:08:51;9.30;99.90
56234;DHT22;42141;53.240;6.580;2022-09-25T07:11:24;9.20;99.90
56234;DHT22;42141;53.240;6.580;2022-09-25T07:13:51;9.70;99.90
56234;DHT22;42141;53.240;6.580;2022-09-25T07:16:21;9.80;99.90
56234;DHT22;42141;53.240;6.580;2022-09-25T07:18:47;9.70;99.90
56234;DHT22;42141;53.240;6.580;2022-09-25T07:21:18;10.60;99.90
56234;DHT22;42141;53.240;6.580;2022-09-25T07:23:46;10.20;99.90
56234;DHT22;42141;53.240;6.580;2022-09-25T07:26:24;10.40;99.90
56234;DHT22;42141;53.240;6.580;2022-09-25T07:29:17;10.50;99.90
56234;DHT22;42141;53.240;6.580;2022-09-25T07:31:43;10.80;99.90
56234;DHT22;42141;53.240;6.580;2022-09-25T07:34:09;10.80;99.90
56234;DHT22;42141;53.240;6.580;2022-09-25T07:36:38;11.10;99.90
56234;DHT22;42141;53.240;6.580;2022-09-25T07:39:05;11.00;99.90
56234;DHT22;42141;53.240;6.580;2022-09-25T07:41:31;11.20;99.90
56234;DHT22;42141;53.240;6.580;2022-09-25T07:43:57;12.50;99.90
56234;DHT22;42141;53.240;6.580;2022-09-25T07:46:24;11.50;99.90
56234;DHT22;42141;53.240;6.580;2022-09-25T07:48:50;11.60;99.90
56234;DHT22;42141;53.240;6.580;2022-09-25T07:51:17;11.80;99.90
56234;DHT22;42141;53.240;6.580;2022-09-25T07:53:43;12.00;99.90
56234;DHT22;42141;53.240;6.580;2022-09-25T07:56:13;12.30;99.90
56234;DHT22;42141;53.240;6.580;2022-09-25T07:58:39;13.00;99.90
56234;DHT22;42141;53.240;6.580;2022-09-25T08:01:08;12.80;99.90
56234;DHT22;42141;53.240;6.580;2022-09-25T08:03:34;13.20;99.90
56234;DHT22;42141;53.240;6.580;2022-09-25T08:06:06;13.40;99.90
56234;DHT22;42141;53.240;6.580;2022-09-25T08:08:34;13.40;99.90
56234;DHT22;42141;53.240;6.580;2022-09-25T08:11:02;13.60;99.90
56234;DHT22;42141;53.240;6.580;2022-09-25T08:13:29;13.80;99.90
56234;DHT22;42141;53.240;6.580;2022-09-25T08:15:55;13.90;99.90
56234;DHT22;42141;53.240;6.580;2022-09-25T08:18:21;14.10;99.90
56234;DHT22;42141;53.240;6.580;2022-09-25T08:20:47;14.20;99.90
56234;DHT22;42141;53.240;6.580;2022-09-25T08:23:12;14.70;99.90
56234;DHT22;42141;53.240;6.580;2022-09-25T08:25:38;14.60;99.90
56234;DHT22;42141;53.240;6.580;2022-09-25T08:28:04;14.90;99.90
56234;DHT22;42141;53.240;6.580;2022-09-25T08:30:30;15.10;99.90
56234;DHT22;42141;53.240;6.580;2022-09-25T08:32:55;15.20;99.90
56234;DHT22;42141;53.240;6.580;2022-09-25T08:35:21;15.50;99.90
56234;DHT22;42141;53.240;6.580;2022-09-25T08:37:47;15.30;99.90
56234;DHT22;42141;53.240;6.580;2022-09-25T08:40:26;14.90;99.90
56234;DHT22;42141;53.240;6.580;2022-09-25T08:42:53;14.60;99.90
56234;DHT22;42141;53.240;6.580;2022-09-25T08:45:33;14.40;99.90
56234;DHT22;42141;53.240;6.580;2022-09-25T08:48:31;14.00;99.90
56234;DHT22;42141;53.240;6.580;2022-09-25T08:51:16;13.80;99.90
56234;DHT22;42141;53.240;6.580;2022-09-25T08:53:42;13.50;99.90
56234;DHT22;42141;53.240;6.580;2022-09-25T08:56:12;13.40;99.90
56234;DHT22;42141;53.240;6.580;2022-09-25T08:58:46;13.60;99.90
56234;DHT22;42141;53.240;6.580;2022-09-25T09:01:24;13.00;99.90
56234;DHT22;42141;53.240;6.580;2022-09-25T09:03:56;12.00;99.90
56234;DHT22;42141;53.240;6.580;2022-09-25T09:06:24;12.80;99.90
56234;DHT22;42141;53.240;6.580;2022-09-25T09:09:05;12.90;99.90
56234;DHT22;42141;53.240;6.580;2022-09-25T09:11:45;12.70;99.90
56234;DHT22;42141;53.240;6.580;2022-09-25T09:14:15;12.60;99.90
56234;DHT22;42141;53.240;6.580;2022-09-25T09:17:21;12.60;99.90
56234;DHT22;42141;53.240;6.580;2022-09-25T09:19:47;12.60;99.90
56234;DHT22;42141;53.240;6.580;2022-09-25T09:22:19;12.60;99.90
56234;DHT22;42141;53.240;6.580;2022-09-25T09:28:07;12.60;99.90
56234;DHT22;42141;53.240;6.580;2022-09-25T09:33:24;12.60;99.90
56234;DHT22;42141;53.240;6.580;2022-09-25T09:36:15;12.60;99.90
56234;DHT22;42141;53.240;6.580;2022-09-25T09:41:45;12.60;99.90
56234;DHT22;42141;53.240;6.580;2022-09-25T09:44:33;12.70;99.90
56234;DHT22;42141;53.240;6.580;2022-09-25T09:47:10;12.70;99.90
56234;DHT22;42141;53.240;6.580;2022-09-25T09:49:46;12.80;99.90
56234;DHT22;42141;53.240;6.580;2022-09-25T09:52:37;12.80;99.90
56234;DHT22;42141;53.240;6.580;2022-09-25T09:57:49;13.10;99.90
56234;DHT22;42141;53.240;6.580;2022-09-25T10:00:18;13.30;99.90
56234;DHT22;42141;53.240;6.580;2022-09-25T10:03:03;13.30;99.90
56234;DHT22;42141;53.240;6.580;2022-09-25T10:05:33;13.50;99.90
56234;DHT22;42141;53.240;6.580;2022-09-25T10:08:00;13.60;99.90
56234;DHT22;42141;53.240;6.580;2022-09-25T10:10:38;13.80;99.90
56234;DHT22;42141;53.240;6.580;2022-09-25T10:13:10;14.10;99.90
56234;DHT22;42141;53.240;6.580;2022-09-25T10:15:48;14.30;99.90
56234;DHT22;42141;53.240;6.580;2022-09-25T10:18:16;14.40;99.90
56234;DHT22;42141;53.240;6.580;2022-09-25T10:21:09;14.60;99.90
56234;DHT22;42141;53.240;6.580;2022-09-25T10:23:53;14.70;99.90
56234;DHT22;42141;53.240;6.580;2022-09-25T10:26:30;14.70;99.90
56234;DHT22;42141;53.240;6.580;2022-09-25T10:29:01;14.80;99.90
56234;DHT22;42141;53.240;6.580;2022-09-25T10:31:34;14.90;99.90
56234;DHT22;42141;53.240;6.580;2022-09-25T10:34:20;15.00;99.90
56234;DHT22;42141;53.240;6.580;2022-09-25T10:36:52;15.20;99.90
56234;DHT22;42141;53.240;6.580;2022-09-25T10:39:35;15.60;99.90
56234;DHT22;42141;53.240;6.580;2022-09-25T10:42:05;15.80;99.90
56234;DHT22;42141;53.240;6.580;2022-09-25T10:44:54;16.00;99.90
56234;DHT22;42141;53.240;6.580;2022-09-25T10:50:23;16.20;99.90
56234;DHT22;42141;53.240;6.580;2022-09-25T10:52:55;16.30;99.90
56234;DHT22;42141;53.240;6.580;2022-09-25T11:03:20;16.30;99.90
56234;DHT22;42141;53.240;6.580;2022-09-25T11:05:52;16.40;99.90
56234;DHT22;42141;53.240;6.580;2022-09-25T11:08:20;16.30;99.90
56234;DHT22;42141;53.240;6.580;2022-09-25T11:10:55;16.30;99.90
56234;DHT22;42141;53.240;6.580;2022-09-25T11:13:23;16.30;99.90
56234;DHT22;42141;53.240;6.580;2022-09-25T11:15:52;16.40;99.90
56234;DHT22;42141;53.240;6.580;2022-09-25T11:18:42;17.00;99.90
56234;DHT22;42141;53.240;6.580;2022-09-25T11:21:36;16.60;99.90
56234;DHT22;42141;53.240;6.580;2022-09-25T11:30:09;17.40;99.90
56234;DHT22;42141;53.240;6.580;2022-09-25T11:33:14;17.70;99.90
56234;DHT22;42141;53.240;6.580;2022-09-25T11:41:16;18.00;99.90
56234;DHT22;42141;53.240;6.580;2022-09-25T11:43:59;17.90;99.90
56234;DHT22;42141;53.240;6.580;2022-09-25T11:46:46;17.80;99.90
56234;DHT22;42141;53.240;6.580;2022-09-25T11:49:25;17.80;99.90
56234;DHT22;42141;53.240;6.580;2022-09-25T11:51:57;17.80;99.90
56234;DHT22;42141;53.240;6.580;2022-09-25T12:00:23;17.80;99.90
56234;DHT22;42141;53.240;6.580;2022-09-25T12:11:08;17.30;99.90
56234;DHT22;42141;53.240;6.580;2022-09-25T12:14:01;17.20;99.90
56234;DHT22;42141;53.240;6.580;2022-09-25T12:27:52;17.00;99.90
56234;DHT22;42141;53.240;6.580;2022-09-25T12:30:22;17.00;99.90
56234;DHT22;42141;53.240;6.580;2022-09-25T12:33:16;17.00;99.90
56234;DHT22;42141;53.240;6.580;2022-09-25T12:36:04;17.10;99.90
56234;DHT22;42141;53.240;6.580;2022-09-25T12:39:03;17.00;99.90
56234;DHT22;42141;53.240;6.580;2022-09-25T12:41:50;17.00;99.90
56234;DHT22;42141;53.240;6.580;2022-09-25T12:44:46;17.10;99.90
56234;DHT22;42141;53.240;6.580;2022-09-25T12:47:33;17.20;99.90
56234;DHT22;42141;53.240;6.580;2022-09-25T12:50:24;17.40;99.90
56234;DHT22;42141;53.240;6.580;2022-09-25T12:53:18;17.70;99.90
56234;DHT22;42141;53.240;6.580;2022-09-25T13:01:45;18.10;99.90
56234;DHT22;42141;53.240;6.580;2022-09-25T13:12:48;17.80;99.90
56234;DHT22;42141;53.240;6.580;2022-09-25T13:15:22;17.90;99.90
56234;DHT22;42141;53.240;6.580;2022-09-25T13:17:49;17.90;99.90
56234;DHT22;42141;53.240;6.580;2022-09-25T13:23:01;18.00;99.90
56234;DHT22;42141;53.240;6.580;2022-09-25T13:25:30;18.10;99.90
56234;DHT22;42141;53.240;6.580;2022-09-25T13:28:07;18.10;99.90
56234;DHT22;42141;53.240;6.580;2022-09-25T13:30:33;18.20;99.90
56234;DHT22;42141;53.240;6.580;2022-09-25T13:33:00;18.20;99.90
56234;DHT22;42141;53.240;6.580;2022-09-25T13:35:29;18.30;99.90
56234;DHT22;42141;53.240;6.580;2022-09-25T13:38:09;18.20;99.90
56234;DHT22;42141;53.240;6.580;2022-09-25T13:40:38;18.10;99.90
56234;DHT22;42141;53.240;6.580;2022-09-25T13:43:23;18.10;99.90
56234;DHT22;42141;53.240;6.580;2022-09-25T13:48:49;18.00;99.90
56234;DHT22;42141;53.240;6.580;2022-09-25T13:56:47;18.60;99.90
56234;DHT22;42141;53.240;6.580;2022-09-25T14:02:24;18.90;99.90
56234;DHT22;42141;53.240;6.580;2022-09-25T14:04:52;19.00;99.90
56234;DHT22;42141;53.240;6.580;2022-09-25T14:07:24;19.00;99.90
56234;DHT22;42141;53.240;6.580;2022-09-25T14:10:09;19.10;99.90
56234;DHT22;42141;53.240;6.580;2022-09-25T14:12:41;18.90;99.90
56234;DHT22;42141;53.240;6.580;2022-09-25T14:15:27;18.90;99.90
56234;DHT22;42141;53.240;6.580;2022-09-25T14:17:56;19.00;99.90
56234;DHT22;42141;53.240;6.580;2022-09-25T14:26:00;19.00;99.90
56234;DHT22;42141;53.240;6.580;2022-09-25T14:28:42;18.90;99.90
56234;DHT22;42141;53.240;6.580;2022-09-25T14:37:26;19.20;99.90
56234;DHT22;42141;53.240;6.580;2022-09-25T14:48:44;18.10;99.90
56234;DHT22;42141;53.240;6.580;2022-09-25T14:51:20;17.70;99.90
56234;DHT22;42141;53.240;6.580;2022-09-25T14:53:57;17.60;99.90
56234;DHT22;42141;53.240;6.580;2022-09-25T14:56:24;17.60;99.90
56234;DHT22;42141;53.240;6.580;2022-09-25T14:58:54;17.60;99.90
56234;DHT22;42141;53.240;6.580;2022-09-25T15:01:27;17.60;99.90
56234;DHT22;42141;53.240;6.580;2022-09-25T15:04:05;17.50;99.90
56234;DHT22;42141;53.240;6.580;2022-09-25T15:06:38;17.50;99.90
56234;DHT22;42141;53.240;6.580;2022-09-25T15:09:27;17.50;99.90
56234;DHT22;42141;53.240;6.580;2022-09-25T15:11:53;17.40;99.90
56234;DHT22;42141;53.240;6.580;2022-09-25T15:14:20;17.20;99.90
56234;DHT22;42141;53.240;6.580;2022-09-25T15:16:46;17.10;99.90
56234;DHT22;42141;53.240;6.580;2022-09-25T15:19:35;17.00;99.90
56234;DHT22;42141;53.240;6.580;2022-09-25T15:22:08;16.80;99.90
56234;DHT22;42141;53.240;6.580;2022-09-25T15:24:35;16.90;99.90
56234;DHT22;42141;53.240;6.580;2022-09-25T15:27:07;16.90;99.90
56234;DHT22;42141;53.240;6.580;2022-09-25T15:29:38;16.90;99.90
56234;DHT22;42141;53.240;6.580;2022-09-25T15:32:06;16.90;99.90
56234;DHT22;42141;53.240;6.580;2022-09-25T15:34:32;16.80;99.90
56234;DHT22;42141;53.240;6.580;2022-09-25T15:37:17;16.80;99.90
56234;DHT22;42141;53.240;6.580;2022-09-25T15:39:45;16.70;99.90
56234;DHT22;42141;53.240;6.580;2022-09-25T15:42:14;16.60;99.90
56234;DHT22;42141;53.240;6.580;2022-09-25T15:44:40;16.40;99.90
56234;DHT22;42141;53.240;6.580;2022-09-25T15:50:28;16.10;99.90
56234;DHT22;42141;53.240;6.580;2022-09-25T15:52:59;15.90;99.90
56234;DHT22;42141;53.240;6.580;2022-09-25T15:55:27;15.70;99.90
56234;DHT22;42141;53.240;6.580;2022-09-25T15:57:54;15.60;99.90
56234;DHT22;42141;53.240;6.580;2022-09-25T16:00:24;15.70;99.90
56234;DHT22;42141;53.240;6.580;2022-09-25T16:05:57;15.30;99.90
56234;DHT22;42141;53.240;6.580;2022-09-25T16:08:31;15.20;99.90
56234;DHT22;42141;53.240;6.580;2022-09-25T16:11:17;15.10;99.90
56234;DHT22;42141;53.240;6.580;2022-09-25T16:13:48;15.10;99.90
56234;DHT22;42141;53.240;6.580;2022-09-25T16:16:21;15.00;99.90
56234;DHT22;42141;53.240;6.580;2022-09-25T16:18:57;14.90;99.90
56234;DHT22;42141;53.240;6.580;2022-09-25T16:21:29;14.90;99.90
56234;DHT22;42141;53.240;6.580;2022-09-25T16:24:04;14.70;99.90
56234;DHT22;42141;53.240;6.580;2022-09-25T16:26:37;14.70;99.90
56234;DHT22;42141;53.240;6.580;2022-09-25T16:29:19;14.70;99.90
56234;DHT22;42141;53.240;6.580;2022-09-25T16:31:46;14.70;99.90
56234;DHT22;42141;53.240;6.580;2022-09-25T16:34:28;14.60;99.90
56234;DHT22;42141;53.240;6.580;2022-09-25T16:36:56;14.60;99.90
56234;DHT22;42141;53.240;6.580;2022-09-25T16:39:32;14.50;99.90
56234;DHT22;42141;53.240;6.580;2022-09-25T16:44:47;14.50;99.90
56234;DHT22;42141;53.240;6.580;2022-09-25T16:47:20;14.40;99.90
56234;DHT22;42141;53.240;6.580;2022-09-25T16:49:51;14.30;99.90
56234;DHT22;42141;53.240;6.580;2022-09-25T16:52:21;14.30;99.90
56234;DHT22;42141;53.240;6.580;2022-09-25T16:54:53;14.30;99.90
56234;DHT22;42141;53.240;6.580;2022-09-25T16:57:23;14.20;99.90
56234;DHT22;42141;53.240;6.580;2022-09-25T16:59:50;14.20;99.90
56234;DHT22;42141;53.240;6.580;2022-09-25T17:04:49;14.20;99.90
56234;DHT22;42141;53.240;6.580;2022-09-25T17:07:16;14.10;99.90
56234;DHT22;42141;53.240;6.580;2022-09-25T17:09:42;14.10;99.90
56234;DHT22;42141;53.240;6.580;2022-09-25T17:12:16;14.60;99.90
56234;DHT22;42141;53.240;6.580;2022-09-25T17:14:44;14.00;99.90
56234;DHT22;42141;53.240;6.580;2022-09-25T17:17:14;14.00;99.90
56234;DHT22;42141;53.240;6.580;2022-09-25T17:19:41;14.00;99.90
56234;DHT22;42141;53.240;6.580;2022-09-25T17:22:08;14.30;99.90
56234;DHT22;42141;53.240;6.580;2022-09-25T17:24:34;13.90;99.90
56234;DHT22;42141;53.240;6.580;2022-09-25T17:27:00;13.90;99.90
56234;DHT22;42141;53.240;6.580;2022-09-25T17:29:26;13.90;99.90
56234;DHT22;42141;53.240;6.580;2022-09-25T17:31:53;15.00;99.90
56234;DHT22;42141;53.240;6.580;2022-09-25T17:34:22;13.80;99.90
56234;DHT22;42141;53.240;6.580;2022-09-25T17:36:54;14.30;99.90
56234;DHT22;42141;53.240;6.580;2022-09-25T17:39:21;13.90;99.90
56234;DHT22;42141;53.240;6.580;2022-09-25T17:41:47;13.80;99.90
56234;DHT22;42141;53.240;6.580;2022-09-25T17:44:16;13.70;99.90
56234;DHT22;42141;53.240;6.580;2022-09-25T17:46:43;13.70;99.90
56234;DHT22;42141;53.240;6.580;2022-09-25T17:49:08;13.50;99.90
56234;DHT22;42141;53.240;6.580;2022-09-25T17:51:34;13.60;99.90
56234;DHT22;42141;53.240;6.580;2022-09-25T17:54:01;13.50;99.90
56234;DHT22;42141;53.240;6.580;2022-09-25T17:56:27;13.50;99.90
56234;DHT22;42141;53.240;6.580;2022-09-25T17:58:55;13.40;99.90
56234;DHT22;42141;53.240;6.580;2022-09-25T18:01:23;13.30;99.90
56234;DHT22;42141;53.240;6.580;2022-09-25T18:03:50;13.20;99.90
56234;DHT22;42141;53.240;6.580;2022-09-25T18:06:17;13.60;99.90
56234;DHT22;42141;53.240;6.580;2022-09-25T18:08:50;13.10;99.90
56234;DHT22;42141;53.240;6.580;2022-09-25T18:11:19;13.00;99.90
56234;DHT22;42141;53.240;6.580;2022-09-25T18:13:45;14.10;99.90
56234;DHT22;42141;53.240;6.580;2022-09-25T18:16:17;12.90;99.90
56234;DHT22;42141;53.240;6.580;2022-09-25T18:18:43;12.80;99.90
56234;DHT22;42141;53.240;6.580;2022-09-25T18:21:35;12.70;99.90
56234;DHT22;42141;53.240;6.580;2022-09-25T18:24:19;12.60;99.90
56234;DHT22;42141;53.240;6.580;2022-09-25T18:26:46;12.70;99.90
56234;DHT22;42141;53.240;6.580;2022-09-25T18:29:14;12.50;99.90
56234;DHT22;42141;53.240;6.580;2022-09-25T18:31:41;12.50;99.90
56234;DHT22;42141;53.240;6.580;2022-09-25T18:34:07;12.40;99.90
56234;DHT22;42141;53.240;6.580;2022-09-25T18:36:33;12.40;99.90
56234;DHT22;42141;53.240;6.580;2022-09-25T18:38:59;12.30;99.90